Time;durP1;ratioP1;P1;durP2;ratioP2;P2;SDS_P1;SDS_P2;PMS_P1;PMS_P2;Temp;Humidity;BMP_temperature;BMP_pressure;BME280_temperature;BME280_humidity;BME280_pressure;Samples;Min_cycle;Max_cycle;Signal;HPM_P1;HPM_P2
2022/09/22 00:01:23;;;;;;;2.30;1.77;;;;;;;-143.84;67.51;45167.13;5089127;28;20796;-71
2022/09/22 00:03:52;;;;;;;9.63;2.27;;;;;;;-143.84;67.67;45123.34;5090999;28;20913;-71
2022/09/22 00:06:21;;;;;;;4.33;2.13;;;;;;;-143.84;67.47;45123.34;5093194;28;20510;-71
2022/09/22 00:08:50;;;;;;;2.40;2.20;;;;;;;-143.84;67.72;45100.47;5092822;28;20432;-71
2022/09/22 00:11:20;;;;;;;4.40;2.13;;;;;;;-143.84;67.92;45148.09;5093078;28;20442;-71
2022/09/22 00:13:50;;;;;;;2.03;1.93;;;;;;;-143.84;67.86;45102.38;5093208;28;20444;-71
2022/09/22 00:16:18;;;;;;;2.27;1.70;;;;;;;-143.84;68.24;45111.91;5093340;28;20444;-71
2022/09/22 00:18:47;;;;;;;2.03;1.93;;;;;;;-143.84;67.93;45104.28;5093128;28;20514;-71
2022/09/22 00:21:16;;;;;;;2.20;2.10;;;;;;;-143.84;68.22;45100.47;5092906;28;20686;-71
2022/09/22 00:23:44;;;;;;;2.60;2.20;;;;;;;-143.84;68.35;45119.53;5092936;28;20480;-71
2022/09/22 00:26:14;;;;;;;2.07;1.70;;;;;;;-143.84;68.58;45100.47;5092818;28;20518;-71
2022/09/22 00:28:42;;;;;;;2.10;1.90;;;;;;;-143.84;68.69;45125.22;5092842;28;20428;-71
2022/09/22 00:31:11;;;;;;;2.53;2.33;;;;;;;-143.84;68.92;45125.22;5092520;28;20964;-71
2022/09/22 00:33:40;;;;;;;2.00;1.90;;;;;;;-143.84;69.04;45092.88;5092987;28;20470;-71
2022/09/22 00:36:10;;;;;;;3.40;2.50;;;;;;;-143.84;69.58;45119.53;5092791;28;20935;-71
2022/09/22 00:38:38;;;;;;;2.80;2.57;;;;;;;-143.84;69.63;45123.34;5092478;28;20448;-71
2022/09/22 00:41:09;;;;;;;3.33;1.63;;;;;;;-143.84;69.59;45121.44;5092714;28;20530;-71
2022/09/22 00:43:38;;;;;;;2.10;2.00;;;;;;;-143.84;69.65;45136.66;5092073;28;20853;-71
2022/09/22 00:46:13;;;;;;;2.53;2.33;;;;;;;-143.84;70.00;45130.94;5092519;28;20436;-71
2022/09/22 00:48:46;;;;;;;2.17;2.07;;;;;;;-143.84;70.04;45089.06;5092458;28;20435;-71
2022/09/22 00:51:18;;;;;;;3.57;2.70;;;;;;;-143.84;70.14;45108.09;5092492;28;20463;-70
2022/09/22 00:53:46;;;;;;;2.33;2.23;;;;;;;-143.84;70.12;45129.03;5092367;28;20445;-71
2022/09/22 00:56:18;;;;;;;2.57;2.37;;;;;;;-143.84;70.76;45123.34;5092483;28;20455;-71
2022/09/22 00:58:50;;;;;;;3.40;3.10;;;;;;;-143.84;70.84;45123.34;5092152;28;20442;-71
2022/09/22 01:01:18;;;;;;;3.10;2.80;;;;;;;-143.84;71.20;45117.63;5092211;28;20461;-71
2022/09/22 01:03:45;;;;;;;5.20;2.73;;;;;;;-143.84;71.31;45130.94;5092198;28;20436;-71
2022/09/22 01:06:18;;;;;;;3.00;2.80;;;;;;;-143.84;71.72;45127.13;5092052;28;20432;-71
2022/09/22 01:08:45;;;;;;;5.17;2.73;;;;;;;-143.84;71.65;45142.38;5092284;28;20508;-70
2022/09/22 01:11:15;;;;;;;3.20;3.00;;;;;;;-143.84;71.76;45138.56;5091849;28;20458;-71
2022/09/22 01:13:49;;;;;;;3.33;2.93;;;;;;;-143.84;71.77;45130.94;5091738;28;20858;-71
2022/09/22 01:16:26;;;;;;;3.90;3.50;;;;;;;-143.84;71.81;45148.09;5091775;28;20488;-71
2022/09/22 01:19:06;;;;;;;3.27;2.97;;;;;;;-143.84;71.98;45144.28;5091777;28;20468;-71
2022/09/22 01:21:43;;;;;;;3.03;2.80;;;;;;;-143.84;71.71;45144.28;5091581;28;20501;-71
2022/09/22 01:24:45;;;;;;;3.73;3.23;;;;;;;-143.84;72.04;45134.75;5092259;28;20560;-70
2022/09/22 01:27:49;;;;;;;3.60;2.97;;;;;;;-143.84;72.27;45111.91;5091353;28;20450;-70
2022/09/22 01:30:24;;;;;;;4.57;3.30;;;;;;;-143.84;72.52;45113.81;5091822;28;20521;-71
2022/09/22 01:33:01;;;;;;;3.00;2.80;;;;;;;-143.84;72.60;45108.09;5091298;28;20443;-71
2022/09/22 01:35:32;;;;;;;3.07;2.87;;;;;;;-143.84;72.85;45113.81;5091490;28;20448;-71
2022/09/22 01:38:07;;;;;;;4.20;3.20;;;;;;;-143.84;72.98;45121.44;5091323;28;20448;-71
2022/09/22 01:40:41;;;;;;;3.20;2.97;;;;;;;-143.84;73.21;45110.00;5091307;28;20446;-71
2022/09/22 01:43:15;;;;;;;4.63;3.10;;;;;;;-143.84;73.18;45129.03;5090920;28;20486;-71
2022/09/22 01:45:48;;;;;;;3.90;3.40;;;;;;;-143.84;73.28;45132.84;5091066;28;20482;-70
2022/09/22 01:48:20;;;;;;;3.00;2.80;;;;;;;-143.84;73.56;45113.81;5091252;28;20436;-71
2022/09/22 01:50:52;;;;;;;3.57;3.27;;;;;;;-143.84;73.53;45148.09;5091072;28;20508;-71
2022/09/22 01:53:24;;;;;;;6.10;3.30;;;;;;;-143.84;74.04;45151.91;5091184;28;20435;-71
2022/09/22 01:55:58;;;;;;;3.10;2.83;;;;;;;-143.84;73.67;45136.66;5090749;28;20492;-71
2022/09/22 01:58:30;;;;;;;2.70;2.50;;;;;;;-143.84;73.90;45155.69;5091187;28;20447;-71
2022/09/22 02:01:02;;;;;;;3.27;3.07;;;;;;;-143.84;74.16;45117.63;5090877;28;20458;-70
2022/09/22 02:03:37;;;;;;;6.00;3.07;;;;;;;-143.84;74.18;45110.00;5090883;28;20490;-70
2022/09/22 02:06:09;;;;;;;3.67;3.33;;;;;;;-143.84;74.09;45110.00;5090880;28;20490;-71
2022/09/22 02:08:41;;;;;;;3.13;2.83;;;;;;;-143.84;74.29;45130.94;5090807;28;20990;-71
2022/09/22 02:11:12;;;;;;;6.40;3.23;;;;;;;-143.84;74.18;45127.13;5090728;28;20501;-71
2022/09/22 02:13:40;;;;;;;3.40;3.10;;;;;;;-143.84;74.33;45140.47;5090726;28;20444;-71
2022/09/22 02:16:10;;;;;;;2.63;2.27;;;;;;;-143.84;74.46;45142.38;5090889;28;20501;-71
2022/09/22 02:18:44;;;;;;;3.10;2.73;;;;;;;-143.84;74.36;45138.56;5090539;28;20447;-71
2022/09/22 02:21:11;;;;;;;3.17;2.97;;;;;;;-143.84;74.46;45123.34;5090753;28;20913;-71
2022/09/22 02:23:38;;;;;;;3.40;3.07;;;;;;;-143.84;74.36;45155.69;5090384;28;20501;-71
2022/09/22 02:26:07;;;;;;;3.73;2.70;;;;;;;-143.84;74.50;45138.56;5089667;28;20479;-71
2022/09/22 02:28:38;;;;;;;3.53;3.27;;;;;;;-143.84;74.42;45121.44;5089997;28;20440;-71
2022/09/22 02:31:09;;;;;;;3.30;2.67;;;;;;;-143.84;74.69;45142.38;5090003;28;20952;-71
2022/09/22 02:33:39;;;;;;;2.30;2.20;;;;;;;-143.84;74.64;45125.22;5090128;28;20969;-71
2022/09/22 02:36:30;;;;;;;5.33;2.83;;;;;;;-143.84;74.56;45136.66;5090026;28;20510;-71
2022/09/22 02:39:03;;;;;;;3.53;2.83;;;;;;;-143.84;74.71;45123.34;5089926;28;20431;-71
2022/09/22 02:41:41;;;;;;;9.53;3.23;;;;;;;-143.84;74.58;45138.56;5090142;28;20486;-71
2022/09/22 02:44:15;;;;;;;2.70;2.50;;;;;;;-143.84;74.46;45121.44;5090088;28;20476;-71
2022/09/22 02:46:50;;;;;;;3.57;3.27;;;;;;;-143.84;74.24;45113.81;5089994;28;20999;-71
2022/09/22 02:49:19;;;;;;;3.00;2.57;;;;;;;-143.84;74.58;45134.75;5089532;28;20984;-71
2022/09/22 02:51:49;;;;;;;4.43;3.10;;;;;;;-143.84;74.61;45117.63;5089602;28;20455;-71
2022/09/22 02:54:16;;;;;;;2.50;2.40;;;;;;;-143.84;74.37;45155.69;5088896;28;20436;-71
2022/09/22 02:56:44;;;;;;;2.83;2.63;;;;;;;-143.84;74.46;45144.28;5088671;28;20446;-71
2022/09/22 02:59:11;;;;;;;3.30;3.10;;;;;;;-143.84;74.23;45159.50;5089749;28;20439;-71
2022/09/22 03:01:38;;;;;;;3.73;2.87;;;;;;;-143.84;74.28;45130.94;5089664;28;20447;-71
2022/09/22 03:04:07;;;;;;;3.33;3.10;;;;;;;-143.84;74.38;45117.63;5089624;28;20502;-71
2022/09/22 03:06:36;;;;;;;3.47;2.33;;;;;;;-143.84;74.52;45125.22;5089632;28;20479;-71
2022/09/22 03:09:04;;;;;;;5.50;2.73;;;;;;;-143.84;74.39;45140.47;5089660;28;20817;-71
2022/09/22 03:11:31;;;;;;;3.27;2.80;;;;;;;-143.84;74.36;45136.66;5089615;28;20439;-71
2022/09/22 03:13:58;;;;;;;7.27;2.80;;;;;;;-143.84;74.44;45130.94;5089433;28;20504;-71
2022/09/22 03:16:25;;;;;;;3.07;2.73;;;;;;;-143.84;74.21;45144.28;5089549;28;20500;-71
2022/09/22 03:18:52;;;;;;;8.33;2.80;;;;;;;-143.84;74.15;45117.63;5089543;28;20489;-71
2022/09/22 03:21:21;;;;;;;5.27;2.87;;;;;;;-143.84;74.21;45110.00;5089461;28;20443;-71
2022/09/22 03:23:48;;;;;;;3.50;2.80;;;;;;;-143.84;74.31;45111.91;5089319;28;20508;-71
2022/09/22 03:26:15;;;;;;;2.90;2.50;;;;;;;-143.84;74.01;45151.91;5089174;28;20544;-71
2022/09/22 03:28:43;;;;;;;2.93;2.73;;;;;;;-143.84;74.04;45132.84;5089174;28;20502;-71
2022/09/22 03:31:10;;;;;;;6.60;2.80;;;;;;;-143.84;74.01;45136.66;5089215;28;20455;-71
2022/09/22 03:33:38;;;;;;;6.83;3.50;;;;;;;-143.84;74.37;45136.66;5089025;28;20443;-71
2022/09/22 03:36:06;;;;;;;2.50;2.30;;;;;;;-143.84;74.10;45148.09;5088835;28;20463;-71
2022/09/22 03:38:35;;;;;;;3.20;3.00;;;;;;;-143.84;74.04;45125.22;5070635;28;20447;-71
2022/09/22 03:41:03;;;;;;;2.77;2.67;;;;;;;-143.84;74.10;45140.47;5089079;28;20486;-71
2022/09/22 03:43:30;;;;;;;5.10;3.40;;;;;;;-143.84;73.96;45125.22;5089202;28;20476;-71
2022/09/22 03:45:58;;;;;;;3.17;2.87;;;;;;;-143.84;74.04;45125.22;5089229;28;20487;-71
2022/09/22 03:48:27;;;;;;;3.10;2.90;;;;;;;-143.84;74.04;45130.94;5089042;28;20438;-71
2022/09/22 03:50:55;;;;;;;3.90;3.50;;;;;;;-143.84;74.37;45140.47;5089138;28;20459;-71
2022/09/22 03:53:22;;;;;;;4.50;3.40;;;;;;;-143.84;74.86;45123.34;5089029;28;20435;-71
2022/09/22 03:55:52;;;;;;;5.00;3.10;;;;;;;-143.84;75.07;45108.09;5088980;28;20466;-71
2022/09/22 03:58:20;;;;;;;2.73;2.53;;;;;;;-143.84;75.58;45132.84;5088957;28;20459;-71
2022/09/22 04:00:49;;;;;;;3.10;2.70;;;;;;;-143.84;75.64;45132.84;5089072;28;20471;-71
2022/09/22 04:03:16;;;;;;;3.20;2.80;;;;;;;-143.84;75.59;45134.75;5088643;28;20496;-71
2022/09/22 04:05:49;;;;;;;4.27;3.10;;;;;;;-143.84;75.64;45144.28;5087952;28;20562;-70
2022/09/22 04:08:17;;;;;;;4.73;3.40;;;;;;;-143.84;75.83;45161.41;5088711;28;20931;-70
2022/09/22 04:10:45;;;;;;;3.33;2.90;;;;;;;-143.84;75.94;45111.91;5088905;28;20443;-71
2022/09/22 04:13:13;;;;;;;6.60;3.13;;;;;;;-143.84;76.44;45132.84;5088885;28;20449;-71
2022/09/22 04:15:41;;;;;;;3.87;3.60;;;;;;;-143.84;76.38;45136.66;5088949;28;20510;-71
2022/09/22 04:18:08;;;;;;;3.33;3.07;;;;;;;-143.84;76.60;45125.22;5088817;28;20450;-70
2022/09/22 04:20:38;;;;;;;3.10;2.90;;;;;;;-143.84;76.68;45132.84;5088186;28;20529;-71
2022/09/22 04:23:05;;;;;;;4.37;3.17;;;;;;;-143.84;76.60;45144.28;5088506;28;20553;-71
2022/09/22 04:25:32;;;;;;;3.70;3.40;;;;;;;-143.84;76.78;45140.47;5088485;28;20899;-70
2022/09/22 04:27:59;;;;;;;3.73;3.40;;;;;;;-143.84;76.83;45144.28;5088470;28;20446;-71
2022/09/22 04:30:28;;;;;;;3.57;2.90;;;;;;;-143.84;76.55;45129.03;5088609;28;20440;-70
2022/09/22 04:32:55;;;;;;;3.20;2.90;;;;;;;-143.84;76.60;45113.81;5088378;28;20443;-71
2022/09/22 04:35:22;;;;;;;4.40;3.20;;;;;;;-143.84;76.50;45123.34;5088187;28;20451;-70
2022/09/22 04:37:50;;;;;;;2.80;2.60;;;;;;;-143.84;76.46;45132.84;5088838;28;20507;-71
2022/09/22 04:40:17;;;;;;;3.20;2.90;;;;;;;-143.84;76.71;45136.66;5088463;28;20470;-70
2022/09/22 04:42:46;;;;;;;3.93;3.50;;;;;;;-143.84;76.76;45138.56;5088406;28;20448;-71
2022/09/22 04:45:13;;;;;;;3.97;3.60;;;;;;;-143.84;76.49;45108.09;5088393;28;21173;-70
2022/09/22 04:47:44;;;;;;;3.10;2.73;;;;;;;-143.84;76.58;45153.81;5088548;28;21009;-71
2022/09/22 04:50:12;;;;;;;4.63;3.40;;;;;;;-143.84;76.91;45140.47;5090648;28;20523;-71
2022/09/22 04:52:39;;;;;;;4.10;3.70;;;;;;;-143.84;76.79;45136.66;5092209;28;20529;-71
2022/09/22 04:55:08;;;;;;;6.90;4.03;;;;;;;-143.84;76.77;45121.44;5092220;28;20439;-71
2022/09/22 04:57:35;;;;;;;5.00;3.20;;;;;;;-143.84;76.89;45127.13;5091764;28;20444;-70
2022/09/22 05:00:03;;;;;;;3.57;3.30;;;;;;;-143.84;77.09;45132.84;5092136;28;20446;-71
2022/09/22 05:02:30;;;;;;;4.47;3.23;;;;;;;-143.84;77.31;45138.56;5092077;28;20451;-71
2022/09/22 05:04:59;;;;;;;4.00;3.40;;;;;;;-143.84;77.40;45113.81;5092169;28;20863;-71
2022/09/22 05:07:27;;;;;;;5.00;3.50;;;;;;;-143.84;77.33;45125.22;5091658;28;20450;-71
2022/09/22 05:09:54;;;;;;;4.40;4.00;;;;;;;-143.84;77.25;45144.28;5092356;28;20444;-71
2022/09/22 05:12:21;;;;;;;5.23;2.50;;;;;;;-143.84;76.85;45111.91;5091843;28;20494;-70
2022/09/22 05:14:48;;;;;;;3.73;3.40;;;;;;;-143.84;77.40;45144.28;5091808;28;20436;-71
2022/09/22 05:17:15;;;;;;;3.97;3.67;;;;;;;-143.84;77.50;45167.13;5091844;28;20967;-71
2022/09/22 05:19:42;;;;;;;3.70;3.40;;;;;;;-143.84;77.42;45150.00;5091743;28;20516;-71
2022/09/22 05:22:11;;;;;;;4.70;3.63;;;;;;;-143.84;77.27;45123.34;5091679;28;20439;-71
2022/09/22 05:24:41;;;;;;;4.63;4.20;;;;;;;-143.84;77.33;45140.47;5091554;28;20447;-71
2022/09/22 05:27:08;;;;;;;3.83;3.47;;;;;;;-143.84;77.69;45121.44;5091219;28;21085;-71
2022/09/22 05:29:35;;;;;;;3.87;3.57;;;;;;;-143.84;77.68;45150.00;5091459;28;20439;-71
2022/09/22 05:32:02;;;;;;;4.30;3.93;;;;;;;-143.84;77.57;45146.19;5091313;28;20521;-71
2022/09/22 05:34:30;;;;;;;3.83;3.53;;;;;;;-143.84;77.60;45127.13;5091350;28;20999;-71
2022/09/22 05:36:57;;;;;;;3.10;2.90;;;;;;;-143.84;77.43;45129.03;5091325;28;20429;-71
2022/09/22 05:39:26;;;;;;;3.97;3.67;;;;;;;-143.84;77.61;45142.38;5091182;28;20440;-71
2022/09/22 05:41:53;;;;;;;8.33;3.23;;;;;;;-143.84;77.39;45129.03;5085294;28;20456;-70
2022/09/22 05:44:20;;;;;;;4.03;3.63;;;;;;;-143.84;77.29;45113.81;5091714;28;20488;-71
2022/09/22 05:46:47;;;;;;;4.07;3.77;;;;;;;-143.84;77.76;45132.84;5086327;28;20521;-74
2022/09/22 05:49:15;;;;;;;4.87;3.03;;;;;;;-143.84;76.80;45121.44;5090613;28;20985;-71
2022/09/22 05:51:42;;;;;;;2.97;2.77;;;;;;;-143.84;76.53;45153.81;5090045;28;21078;-70
2022/09/22 05:54:09;;;;;;;3.00;2.87;;;;;;;-143.84;76.05;45127.13;5084774;28;20535;-70
2022/09/22 05:56:38;;;;;;;6.60;3.10;;;;;;;-143.84;75.89;45127.13;5089062;28;20436;-70
2022/09/22 05:59:05;;;;;;;3.00;2.57;;;;;;;-143.84;75.98;45132.84;5090294;28;20969;-70
2022/09/22 06:01:33;;;;;;;3.30;2.93;;;;;;;-143.84;75.61;45110.00;5088775;28;20452;-69
2022/09/22 06:04:00;;;;;;;3.20;2.90;;;;;;;-143.84;75.19;45119.53;5089690;28;20460;-71
2022/09/22 06:06:27;;;;;;;3.50;2.73;;;;;;;-143.84;75.01;45142.38;5085535;28;20484;-70
2022/09/22 06:08:54;;;;;;;4.00;2.60;;;;;;;-143.84;74.88;45094.78;5089820;28;21040;-70
2022/09/22 06:11:21;;;;;;;3.13;2.87;;;;;;;-143.84;74.75;45125.22;5089799;28;20958;-70
2022/09/22 06:13:51;;;;;;;4.00;3.60;;;;;;;-143.84;73.62;45123.34;5089714;28;20448;-70
2022/09/22 06:16:18;;;;;;;8.20;3.47;;;;;;;-143.84;73.88;45132.84;5079901;28;20512;-70
2022/09/22 06:18:46;;;;;;;3.43;3.13;;;;;;;-143.84;72.77;45115.72;5090384;28;20592;-71
2022/09/22 06:21:14;;;;;;;4.17;3.07;;;;;;;-143.84;72.25;45121.44;5089938;28;20987;-71
2022/09/22 06:23:41;;;;;;;3.60;3.40;;;;;;;-143.84;72.57;45113.81;5090073;28;20850;-71
2022/09/22 06:26:09;;;;;;;5.70;3.40;;;;;;;-143.84;72.53;45138.56;5089757;28;20482;-71
2022/09/22 06:28:36;;;;;;;4.17;3.57;;;;;;;-143.84;72.16;45110.00;5089893;28;20460;-71
2022/09/22 06:31:05;;;;;;;4.00;3.70;;;;;;;-143.84;72.08;45108.09;5089833;28;21045;-71
2022/09/22 06:33:33;;;;;;;3.90;3.60;;;;;;;-143.84;71.34;45123.34;5089956;28;20634;-71
2022/09/22 06:36:01;;;;;;;5.17;3.40;;;;;;;-143.84;70.73;45102.38;5090035;28;20801;-70
2022/09/22 06:38:30;;;;;;;3.40;3.20;;;;;;;-143.84;70.80;45117.63;5071456;28;20555;-73
2022/09/22 06:41:05;;;;;;;3.50;2.70;;;;;;;-143.84;69.46;45117.63;5089021;28;20485;-71
2022/09/22 06:43:36;;;;;;;4.77;4.10;;;;;;;-143.84;68.60;45073.81;5088678;28;20536;-69
2022/09/22 06:46:05;;;;;;;6.03;4.20;;;;;;;-143.84;69.01;45121.44;5085374;28;20488;-71
2022/09/22 06:48:33;;;;;;;7.00;3.73;;;;;;;-143.84;68.12;45117.63;5089790;28;20435;-72
2022/09/22 06:51:00;;;;;;;7.63;3.67;;;;;;;-143.84;68.01;45110.00;5089432;28;20457;-71
2022/09/22 06:53:28;;;;;;;5.63;3.50;;;;;;;-143.84;67.78;45102.38;5089656;28;20436;-71
2022/09/22 06:55:55;;;;;;;4.10;3.67;;;;;;;-143.84;67.18;45096.66;5089384;28;20841;-72
2022/09/22 06:58:22;;;;;;;4.03;3.47;;;;;;;-143.84;67.10;45110.00;5088769;28;20472;-72
2022/09/22 07:00:50;;;;;;;3.90;3.33;;;;;;;-143.84;66.45;45096.66;5089755;28;20458;-73
2022/09/22 07:03:21;;;;;;;4.73;3.60;;;;;;;-143.84;65.84;45085.25;5088545;28;20987;-72
2022/09/22 07:05:56;;;;;;;2.60;2.40;;;;;;;-143.84;65.16;45096.66;5088617;28;20521;-72
2022/09/22 07:08:24;;;;;;;5.70;3.77;;;;;;;-143.84;64.42;45113.81;5089684;28;20450;-72
2022/09/22 07:10:53;;;;;;;3.47;3.20;;;;;;;-143.84;64.24;45083.34;5089649;28;20497;-71
2022/09/22 07:13:22;;;;;;;4.30;3.27;;;;;;;-143.84;64.39;45115.72;5089451;28;20794;-72
2022/09/22 07:15:49;;;;;;;4.07;3.30;;;;;;;-143.84;64.00;45079.53;5088657;28;20630;-70
2022/09/22 07:18:21;;;;;;;3.00;2.80;;;;;;;-143.84;64.22;45077.63;5092166;28;21018;-73
2022/09/22 07:20:49;;;;;;;3.23;3.03;;;;;;;-143.84;63.62;45100.47;5089056;28;20486;-71
2022/09/22 07:23:20;;;;;;;4.53;4.10;;;;;;;-143.84;64.02;45092.88;5089286;28;20437;-69
2022/09/22 07:25:55;;;;;;;3.63;3.40;;;;;;;-143.84;64.25;45083.34;5089649;28;20440;-72
2022/09/22 07:28:22;;;;;;;3.87;3.23;;;;;;;-143.84;64.71;45087.16;5089349;28;20440;-71
2022/09/22 07:30:49;;;;;;;4.57;3.43;;;;;;;-143.84;64.37;45079.53;5089197;28;20443;-70
2022/09/22 07:33:18;;;;;;;10.60;3.77;;;;;;;-143.84;64.52;45066.22;5088970;28;20535;-71
2022/09/22 07:35:45;;;;;;;5.97;4.30;;;;;;;-143.84;63.96;45092.88;5088033;28;20547;-71
2022/09/22 07:38:12;;;;;;;10.73;4.30;;;;;;;-143.84;64.60;45085.25;5089155;28;20443;-70
2022/09/22 07:40:40;;;;;;;3.60;3.30;;;;;;;-143.84;64.15;45089.06;5089148;28;20433;-70
2022/09/22 07:43:07;;;;;;;6.37;4.27;;;;;;;-143.84;63.98;45110.00;5088436;28;20487;-70
2022/09/22 07:45:34;;;;;;;7.67;5.20;;;;;;;-143.84;63.68;45117.63;5087246;28;20433;-70
2022/09/22 07:50:59;;;;;;;4.37;3.97;;;;;;;-143.84;64.09;45087.16;5084798;28;20963;-71
2022/09/22 07:53:26;;;;;;;4.23;3.93;;;;;;;-143.84;65.01;45119.53;5082475;28;20455;-70
2022/09/22 07:55:53;;;;;;;4.60;4.20;;;;;;;-143.84;64.45;45096.66;5087181;28;20797;-70
2022/09/22 07:58:20;;;;;;;4.50;4.10;;;;;;;-143.84;63.43;45085.25;5087457;28;20451;-70
2022/09/22 08:00:48;;;;;;;10.87;4.40;;;;;;;-143.84;63.11;45075.72;5087312;28;20537;-71
2022/09/22 08:03:15;;;;;;;5.50;4.70;;;;;;;-143.84;63.17;45064.31;5087433;28;20460;-70
2022/09/22 08:05:42;;;;;;;4.83;4.40;;;;;;;-143.84;63.01;45104.28;5086309;28;20461;-70
2022/09/22 08:08:11;;;;;;;4.77;3.63;;;;;;;-143.84;61.82;45079.53;5082951;28;20480;-71
2022/09/22 08:10:38;;;;;;;4.10;3.57;;;;;;;-143.84;61.50;45092.88;5087413;28;20517;-71
2022/09/22 08:13:05;;;;;;;5.90;3.20;;;;;;;-143.84;60.84;45081.44;5087575;28;20800;-71
2022/09/22 08:15:32;;;;;;;5.07;3.40;;;;;;;-143.84;61.34;45123.34;5087410;28;20810;-71
2022/09/22 08:18:01;;;;;;;5.97;2.90;;;;;;;-143.84;60.67;45106.19;5086817;28;20493;-71
2022/09/22 08:20:28;;;;;;;3.10;2.80;;;;;;;-143.84;60.98;45089.06;5087530;28;20464;-70
2022/09/22 08:22:57;;;;;;;2.80;2.60;;;;;;;-143.84;59.94;45106.19;5087778;28;21381;-70
2022/09/22 08:25:25;;;;;;;6.20;5.60;;;;;;;-143.84;61.29;45064.31;5087205;28;20524;-70
2022/09/22 08:27:53;;;;;;;5.10;4.60;;;;;;;-143.84;61.00;45085.25;5087342;28;20478;-70
2022/09/22 08:30:20;;;;;;;2.97;2.70;;;;;;;-143.84;59.70;45100.47;5091473;28;20509;-71
2022/09/22 08:32:47;;;;;;;34.27;13.97;;;;;;;-143.84;59.07;45068.13;5087388;28;20492;-70
2022/09/22 08:35:14;;;;;;;19.50;6.87;;;;;;;-143.84;57.63;45085.25;5090416;28;20487;-71
2022/09/22 08:37:42;;;;;;;28.90;10.47;;;;;;;-143.84;54.63;45077.63;5091399;28;20446;-71
2022/09/22 08:40:15;;;;;;;11.10;5.77;;;;;;;-143.84;54.69;45079.53;5090992;28;20459;-70
2022/09/22 08:42:44;;;;;;;5.10;3.97;;;;;;;-143.84;54.32;45073.81;5090666;28;20446;-71
2022/09/22 08:45:30;;;;;;;2.37;2.17;;;;;;;-143.84;53.00;45054.78;5069662;28;20463;-70
2022/09/22 08:53:37;;;;;;;25.10;17.67;;;;;;;-143.84;50.69;45070.00;5072966;28;20443;-70
2022/09/22 08:56:15;;;;;;;11.03;6.93;;;;;;;-143.84;50.21;45100.47;5068948;28;20452;-71
2022/09/22 08:58:54;;;;;;;11.97;8.50;;;;;;;-143.84;49.62;45068.13;5069912;28;20985;-71
2022/09/22 09:01:35;;;;;;;22.30;13.87;;;;;;;-143.84;50.60;45087.16;5069110;28;20456;-70
2022/09/22 09:04:17;;;;;;;3.30;2.83;;;;;;;-143.84;51.04;45052.88;5069157;28;20539;-70
2022/09/22 09:06:56;;;;;;;10.87;3.87;;;;;;;-143.84;49.88;45062.41;5069169;28;20479;-70
2022/09/22 09:09:37;;;;;;;5.80;2.90;;;;;;;-143.84;47.58;45049.06;5069958;28;20939;-71
2022/09/22 09:12:40;;;;;;;12.90;5.90;;;;;;;-143.84;47.57;45060.50;5070405;28;20440;-70
2022/09/22 09:15:27;;;;;;;16.73;7.50;;;;;;;-143.84;46.40;45054.78;5021017;28;21019;-71
2022/09/22 09:18:00;;;;;;;8.20;4.70;;;;;;;-143.84;47.90;45094.78;5081095;28;20874;-70
2022/09/22 09:20:37;;;;;;;2.70;2.50;;;;;;;-143.84;46.31;45056.69;5083351;28;20459;-71
2022/09/22 09:23:12;;;;;;;2.53;1.73;;;;;;;-143.84;46.96;45052.88;5073179;28;20506;-70
2022/09/22 09:25:42;;;;;;;4.90;4.60;;;;;;;-143.84;46.13;45060.50;5067331;28;20456;-71
2022/09/22 09:28:14;;;;;;;2.83;2.63;;;;;;;-143.84;44.98;45075.72;5069488;28;20555;-70
2022/09/22 09:30:45;;;;;;;8.33;3.07;;;;;;;-143.84;43.93;45073.81;5068129;28;20452;-71
2022/09/22 09:33:26;;;;;;;2.47;2.00;;;;;;;-143.84;44.07;45056.69;5068960;28;20448;-70
2022/09/22 09:35:53;;;;;;;1.90;1.80;;;;;;;-143.84;44.10;45050.97;5063279;28;20448;-70
2022/09/22 09:38:27;;;;;;;5.43;2.90;;;;;;;-143.84;43.04;45049.06;5069817;28;20457;-70
2022/09/22 09:41:00;;;;;;;11.40;2.00;;;;;;;-143.84;43.17;45068.13;5067440;28;20448;-70
2022/09/22 09:43:29;;;;;;;2.30;2.10;;;;;;;-143.84;42.81;45060.50;5070984;28;20492;-70
2022/09/22 09:46:13;;;;;;;2.27;2.17;;;;;;;-143.84;44.70;45064.31;5071972;28;20457;-70
2022/09/22 09:48:51;;;;;;;2.13;2.03;;;;;;;-143.84;44.09;45056.69;5080879;28;20486;-71
2022/09/22 09:51:20;;;;;;;2.27;1.80;;;;;;;-143.84;43.50;45066.22;5074839;28;20464;-71
2022/09/22 09:53:48;;;;;;;17.67;2.60;;;;;;;-143.84;44.07;45079.53;5075381;28;20462;-71
2022/09/22 09:56:24;;;;;;;2.60;2.10;;;;;;;-143.84;43.98;45056.69;5066809;28;20463;-71
2022/09/22 10:01:47;;;;;;;4.13;2.63;;;;;;;-143.84;42.82;45043.34;5072379;28;20533;-70
2022/09/22 10:04:33;;;;;;;6.60;6.10;;;;;;;-143.84;41.97;45039.53;5075327;28;20453;-71
2022/09/22 10:07:11;;;;;;;3.50;2.43;;;;;;;-143.84;43.79;45056.69;5074578;28;20645;-71
2022/09/22 10:09:40;;;;;;;4.60;4.30;;;;;;;-143.84;43.84;45037.66;5073002;28;20954;-71
2022/09/22 10:12:22;;;;;;;2.13;1.93;;;;;;;-143.84;42.78;45064.31;5072804;28;20448;-71
2022/09/22 10:14:52;;;;;;;10.13;6.43;;;;;;;-143.84;42.56;45062.41;5063420;28;20560;-71
2022/09/22 10:17:23;;;;;;;7.67;4.07;;;;;;;-143.84;43.20;45064.31;5070537;28;20907;-71
2022/09/22 10:19:50;;;;;;;2.77;2.57;;;;;;;-143.84;43.20;45060.50;5076787;28;20459;-72
2022/09/22 10:22:28;;;;;;;2.60;2.40;;;;;;;-143.84;43.93;45066.22;5088040;28;20484;-71
2022/09/22 10:25:00;;;;;;;2.83;2.63;;;;;;;-143.84;42.01;45043.34;5051384;28;20846;-72
2022/09/22 10:27:30;;;;;;;2.67;2.47;;;;;;;-143.84;43.25;45083.34;5048457;28;20489;-71
2022/09/22 10:30:21;;;;;;;5.30;3.57;;;;;;;-143.84;42.50;45043.34;5051542;28;20457;-71
2022/09/22 10:33:06;;;;;;;2.50;2.30;;;;;;;-143.84;42.22;45068.13;5069180;28;20569;-71
2022/09/22 10:35:35;;;;;;;7.57;5.40;;;;;;;-143.84;42.22;45043.34;5062730;28;20456;-71
2022/09/22 10:38:09;;;;;;;2.53;2.33;;;;;;;-143.84;43.02;45056.69;5066976;28;20447;-71
2022/09/22 10:40:40;;;;;;;3.97;2.40;;;;;;;-143.84;43.07;45041.44;5059229;28;21031;-71
2022/09/22 10:43:19;;;;;;;2.27;2.13;;;;;;;-143.84;42.99;45018.59;5053604;28;20477;-72
2022/09/22 10:46:04;;;;;;;2.80;2.47;;;;;;;-143.84;42.93;45070.00;5075154;28;20456;-72
2022/09/22 10:48:41;;;;;;;2.50;2.40;;;;;;;-143.84;42.44;45035.75;5080385;28;21216;-72
2022/09/22 10:51:15;;;;;;;2.13;1.70;;;;;;;-143.84;42.71;45028.13;5080761;28;20495;-72
2022/09/22 10:54:07;;;;;;;4.57;2.73;;;;;;;-143.84;41.86;45047.16;5084522;28;20862;-71
2022/09/22 10:56:37;;;;;;;15.67;6.10;;;;;;;-143.84;40.99;45054.78;5080705;28;21310;-72
2022/09/22 10:59:40;;;;;;;7.10;2.73;;;;;;;-143.84;40.96;45033.84;5077827;28;20484;-71
2022/09/22 11:02:44;;;;;;;8.17;6.40;;;;;;;-143.84;40.80;45043.34;5087706;28;20527;-71
2022/09/22 11:14:10;;;;;;;2.60;2.40;;;;;;;-143.84;39.64;45047.16;5073790;28;20486;-72
2022/09/22 11:16:55;;;;;;;4.50;2.43;;;;;;;-143.84;39.53;45043.34;5083503;28;20447;-71
2022/09/22 11:19:46;;;;;;;2.40;2.20;;;;;;;-143.84;39.45;45026.22;5087486;28;20975;-71
2022/09/22 11:22:32;;;;;;;4.80;2.77;;;;;;;-143.84;40.12;45031.94;5076239;28;20452;-71
2022/09/22 11:25:15;;;;;;;6.43;2.00;;;;;;;-143.84;39.45;45030.03;5087149;28;20451;-71
2022/09/22 11:27:56;;;;;;;5.17;2.33;;;;;;;-143.84;39.26;45050.97;5085888;28;20868;-71
2022/09/22 11:30:24;;;;;;;2.23;2.13;;;;;;;-143.84;40.16;45028.13;5086034;28;20896;-72
2022/09/22 11:33:31;;;;;;;5.30;2.67;;;;;;;-143.84;40.06;45030.03;5086684;28;20455;-71
2022/09/22 11:36:14;;;;;;;7.80;2.17;;;;;;;-143.84;40.79;45047.16;5086052;28;20443;-71
2022/09/22 11:39:04;;;;;;;7.20;2.30;;;;;;;-143.84;40.56;45058.59;5086326;28;20463;-71
2022/09/22 11:41:40;;;;;;;2.60;2.40;;;;;;;-143.84;40.23;45043.34;5085120;28;20535;-72
2022/09/22 11:44:30;;;;;;;5.23;2.80;;;;;;;-143.84;40.59;45030.03;5089859;28;20475;-72
2022/09/22 11:47:36;;;;;;;2.50;2.30;;;;;;;-143.84;40.64;45083.34;5086549;28;20444;-72
2022/09/22 11:50:31;;;;;;;4.17;2.50;;;;;;;-143.84;40.96;45062.41;5068812;28;20524;-72
2022/09/22 11:53:28;;;;;;;2.20;2.00;;;;;;;-143.84;40.99;45041.44;5086335;28;20475;-72
2022/09/22 11:56:12;;;;;;;2.80;2.63;;;;;;;-143.84;40.62;45071.91;5080450;28;20574;-71
2022/09/22 11:58:43;;;;;;;5.53;5.13;;;;;;;-143.84;40.70;45058.59;5083499;28;20464;-71